createdAt,value
2023-02-03T00:01:01.638Z,101630.91
2023-02-03T00:03:27.955Z,101627.25
2023-02-03T00:05:54.510Z,101620.03
2023-02-03T00:08:20.835Z,101610.78
2023-02-03T00:10:47.166Z,101612.88
2023-02-03T00:13:13.484Z,101597.88
2023-02-03T00:15:39.821Z,101600.00
2023-02-03T00:18:06.174Z,101598.63
2023-02-03T00:20:32.562Z,101588.63
2023-02-03T00:23:08.629Z,101577.25
2023-02-03T00:25:34.961Z,101560.09
2023-02-03T00:28:01.375Z,101552.84
2023-02-03T00:30:28.165Z,101541.34
2023-02-03T00:32:54.714Z,101541.34
2023-02-03T00:35:21.089Z,101537.59
2023-02-03T00:37:53.941Z,101542.63
2023-02-03T00:40:21.163Z,101526.59
2023-02-03T00:42:47.467Z,101520.09
2023-02-03T00:45:13.793Z,101511.47
2023-02-03T00:47:40.155Z,101509.34
2023-02-03T00:50:06.897Z,101515.09
2023-02-03T00:52:34.575Z,101509.34
2023-02-03T00:55:01.911Z,101499.34
2023-02-03T00:57:28.297Z,101503.59
2023-02-03T00:59:54.884Z,101496.47
2023-02-03T01:02:21.253Z,101491.34
2023-02-03T01:04:47.643Z,101489.22
2023-02-03T01:07:13.973Z,101479.84
2023-02-03T01:09:40.327Z,101479.09
2023-02-03T01:12:06.659Z,101476.09
2023-02-03T01:14:33.555Z,101480.47
2023-02-03T01:17:00.249Z,101467.47
2023-02-03T01:19:26.639Z,101463.13
2023-02-03T01:21:52.977Z,101459.47
2023-02-03T01:24:19.324Z,101461.59
2023-02-03T01:26:45.709Z,101460.25
2023-02-03T01:29:12.112Z,101458.72
2023-02-03T01:31:39.688Z,101449.47
2023-02-03T01:34:07.016Z,101430.09
2023-02-03T01:36:33.995Z,101424.34
2023-02-03T01:39:02.024Z,101414.31
2023-02-03T01:41:30.551Z,101414.97
2023-02-03T01:43:57.239Z,101402.72
2023-02-03T01:46:39.920Z,101401.22
2023-02-03T01:49:26.467Z,101383.97
2023-02-03T01:51:53.578Z,101378.84
2023-02-03T01:54:22.156Z,101372.34
2023-02-03T01:56:49.508Z,101365.13
2023-02-03T01:59:17.321Z,101368.72
2023-02-03T02:01:43.966Z,101357.97
2023-02-03T02:04:10.340Z,101359.47
2023-02-03T02:06:36.695Z,101355.84
2023-02-03T02:09:03.037Z,101342.22
2023-02-03T02:11:29.423Z,101330.72
2023-02-03T02:13:56.630Z,101329.31
2023-02-03T02:16:36.188Z,101307.06
2023-02-03T02:19:28.040Z,101302.69
2023-02-03T02:22:11.869Z,101296.22
2023-02-03T02:24:57.769Z,101276.06
2023-02-03T02:27:39.054Z,101265.94
2023-02-03T02:30:12.869Z,101260.94
2023-02-03T02:32:58.448Z,101254.34
2023-02-03T02:35:44.498Z,101242.09
2023-02-03T02:38:13.871Z,101231.22
2023-02-03T02:40:46.164Z,101219.72
2023-02-03T02:43:13.405Z,101221.97
2023-02-03T02:45:50.544Z,101206.84
2023-02-03T02:48:19.684Z,101207.59
2023-02-03T02:58:37.463Z,101182.44
2023-02-03T03:01:04.362Z,101173.81
2023-02-03T03:03:30.720Z,101171.59
2023-02-03T03:05:58.854Z,101174.47
2023-02-03T03:08:36.784Z,101165.09
2023-02-03T03:11:03.318Z,101163.59
2023-02-03T03:13:31.179Z,101162.09
2023-02-03T03:15:58.950Z,101149.13
2023-02-03T03:18:27.219Z,101143.38
2023-02-03T03:20:53.599Z,101130.41
2023-02-03T03:23:24.820Z,101133.34
2023-02-03T03:25:53.638Z,101124.72
2023-02-03T03:28:30.517Z,101106.84
2023-02-03T03:30:56.957Z,101099.59
2023-02-03T03:33:23.332Z,101099.72
2023-02-03T03:35:53.696Z,101090.31
2023-02-03T03:38:33.033Z,101084.47
2023-02-03T03:41:02.045Z,101075.84
2023-02-03T03:43:28.745Z,101082.34
2023-02-03T03:45:56.020Z,101093.09
2023-02-03T03:48:24.902Z,101100.34
2023-02-03T03:50:52.039Z,101088.84
2023-02-03T03:53:18.370Z,101084.56
2023-02-03T03:55:45.628Z,101084.56
2023-02-03T03:58:13.077Z,101080.31
2023-02-03T04:00:42.500Z,101089.06
2023-02-03T04:03:11.627Z,101088.31
2023-02-03T04:05:38.422Z,101074.69
2023-02-03T04:08:04.751Z,101072.53
2023-02-03T04:10:38.039Z,101058.91
2023-02-03T04:13:04.460Z,101067.53
2023-02-03T04:15:30.986Z,101056.03
2023-02-03T04:17:57.369Z,101046.56
2023-02-03T04:20:24.124Z,101040.81
2023-02-03T04:22:50.482Z,101035.06
2023-02-03T04:25:16.812Z,101017.06
2023-02-03T04:27:43.207Z,101023.56
2023-02-03T04:30:09.992Z,101017.81
2023-02-03T04:32:36.438Z,101013.56
2023-02-03T04:35:03.083Z,101002.06
2023-02-03T04:37:29.434Z,100996.31
2023-02-03T04:39:55.955Z,100982.69
2023-02-03T04:42:22.343Z,100985.56
2023-02-03T04:44:48.666Z,100979.78
2023-02-03T04:47:15.031Z,100976.19
2023-02-03T04:49:41.353Z,100961.03
2023-02-03T04:52:07.693Z,100961.03
2023-02-03T04:54:34.298Z,100949.53
2023-02-03T04:57:00.724Z,100947.44
2023-02-03T04:59:27.072Z,100946.03
2023-02-03T05:01:53.414Z,100930.19
2023-02-03T05:04:19.745Z,100951.03
2023-02-03T05:06:46.070Z,100942.53
2023-02-03T05:09:12.439Z,100938.16
2023-02-03T05:11:38.751Z,100949.63
2023-02-03T05:14:05.067Z,100949.63
2023-02-03T05:16:31.482Z,100941.03
2023-02-03T05:18:57.852Z,100923.75
2023-02-03T05:21:24.185Z,100926.53
2023-02-03T05:23:50.534Z,100922.28
2023-02-03T05:26:16.885Z,100910.78
2023-02-03T05:28:43.199Z,100903.53
2023-02-03T05:31:09.573Z,100905.03
2023-02-03T05:33:35.936Z,100903.53
2023-02-03T05:36:02.388Z,100906.50
2023-02-03T05:38:28.714Z,100904.38
2023-02-03T05:41:13.703Z,100903.00
2023-02-03T05:43:40.037Z,100887.78
2023-02-03T05:46:06.727Z,100886.38
2023-02-03T05:48:33.095Z,100891.41
2023-02-03T05:50:59.458Z,100877.75
2023-02-03T05:53:26.116Z,100870.53
2023-02-03T05:55:52.440Z,100859.03
2023-02-03T05:58:18.786Z,100863.28
2023-02-03T06:00:45.115Z,100853.47
2023-02-03T06:03:11.547Z,100850.69
2023-02-03T06:05:40.894Z,100853.66
2023-02-03T06:08:07.503Z,100840.88
2023-02-03T06:10:33.814Z,100829.38
2023-02-03T06:13:00.164Z,100826.50
2023-02-03T06:15:26.516Z,100818.59
2023-02-03T06:17:52.845Z,100816.94
2023-02-03T06:20:19.298Z,100810.41
2023-02-03T06:22:45.662Z,100811.19
2023-02-03T06:25:13.266Z,100799.00
2023-02-03T06:27:39.786Z,100803.28
2023-02-03T06:30:06.340Z,100802.66
2023-02-03T06:32:32.966Z,100806.16
2023-02-03T06:34:59.290Z,100822.03
2023-02-03T06:37:25.633Z,100804.75
2023-02-03T06:39:51.967Z,100803.75
2023-02-03T06:42:18.613Z,100807.47
2023-02-03T06:44:44.941Z,100812.28
2023-02-03T06:47:11.353Z,100810.41
2023-02-03T06:49:37.681Z,100792.78
2023-02-03T06:52:04.021Z,100782.22
2023-02-03T06:54:30.404Z,100779.44
2023-02-03T06:56:56.745Z,100794.53
2023-02-03T06:59:23.073Z,100779.72
2023-02-03T07:01:49.490Z,100789.28
2023-02-03T07:04:15.843Z,100783.06
2023-02-03T07:06:42.175Z,100775.38
2023-02-03T07:09:08.512Z,100769.16
2023-02-03T07:11:34.851Z,100767.22
2023-02-03T07:14:01.218Z,100761.53
2023-02-03T07:16:27.710Z,100760.91
2023-02-03T07:18:54.098Z,100751.53
2023-02-03T07:21:20.413Z,100750.22
2023-02-03T07:23:47.054Z,100746.06
2023-02-03T07:26:13.370Z,100734.56
2023-02-03T07:28:39.690Z,100732.97
2023-02-03T07:31:08.116Z,100737.25
2023-02-03T07:33:34.561Z,100720.00
2023-02-03T07:36:00.906Z,100714.88
2023-02-03T07:38:27.380Z,100709.13
2023-02-03T07:40:53.700Z,100705.53
2023-02-03T07:43:20.063Z,100705.69
2023-02-03T07:45:46.387Z,100698.97
2023-02-03T07:48:12.939Z,100699.63
2023-02-03T07:50:39.309Z,100692.94
2023-02-03T07:53:05.775Z,100692.94
2023-02-03T07:55:32.551Z,100681.13
2023-02-03T07:57:59.461Z,100676.41
2023-02-03T08:00:27.226Z,100677.09
2023-02-03T08:02:53.809Z,100678.66
2023-02-03T08:05:20.171Z,100671.25
2023-02-03T08:07:46.491Z,100659.16
2023-02-03T08:10:13.152Z,100649.53
2023-02-03T08:12:39.520Z,100647.50
2023-02-03T08:15:06.097Z,100634.25
2023-02-03T08:17:33.673Z,100649.19
2023-02-03T08:19:59.979Z,100638.28
2023-02-03T08:22:26.397Z,100639.19
2023-02-03T08:24:52.730Z,100623.38
2023-02-03T08:27:20.843Z,100626.50
2023-02-03T08:29:47.229Z,100623.38
2023-02-03T08:32:14.204Z,100634.91
2023-02-03T08:34:40.608Z,100620.59
2023-02-03T08:37:06.930Z,100618.28
2023-02-03T08:39:33.445Z,100619.84
2023-02-03T08:41:59.931Z,100606.50
2023-02-03T08:44:26.251Z,100597.53
2023-02-03T08:46:52.712Z,100593.38
2023-02-03T08:49:19.180Z,100591.91
2023-02-03T08:51:45.824Z,100595.59
2023-02-03T08:54:12.165Z,100579.06
2023-02-03T08:56:38.571Z,100581.38
2023-02-03T08:59:04.929Z,100574.63
2023-02-03T09:01:31.326Z,100568.72
2023-02-03T09:03:57.671Z,100563.69
2023-02-03T09:06:26.149Z,100573.16
2023-02-03T09:08:52.660Z,100567.63
2023-02-03T09:11:18.992Z,100574.22
2023-02-03T09:13:48.672Z,100560.63
2023-02-03T09:16:17.284Z,100555.69
2023-02-03T09:18:43.842Z,100559.38
2023-02-03T09:21:20.911Z,100555.03
2023-02-03T09:24:00.297Z,100546.47
2023-02-03T09:26:26.614Z,100551.47
2023-02-03T09:28:52.959Z,100544.78
2023-02-03T09:31:19.716Z,100548.56
2023-02-03T09:33:46.125Z,100526.25
2023-02-03T09:36:12.552Z,100531.19
2023-02-03T09:38:38.916Z,100523.22
2023-02-03T09:41:14.223Z,100522.72
2023-02-03T09:43:40.477Z,100516.81
2023-02-03T09:46:15.920Z,100526.09
2023-02-03T09:48:43.396Z,100513.84
2023-02-03T09:51:20.155Z,100508.78
2023-02-03T09:53:48.673Z,100506.78
2023-02-03T09:56:20.726Z,100501.03
2023-02-03T09:58:47.061Z,100509.66
2023-02-03T10:01:15.633Z,100502.34
2023-02-03T10:03:41.940Z,100487.47
2023-02-03T10:06:22.579Z,100481.03
2023-02-03T10:09:09.824Z,100479.63
2023-02-03T10:11:39.017Z,100467.69
2023-02-03T10:14:09.206Z,100448.72
2023-02-03T10:16:54.314Z,100433.81
2023-02-03T10:19:22.074Z,100421.00
2023-02-03T10:21:49.915Z,100433.31
2023-02-03T10:24:20.311Z,100429.88
2023-02-03T10:26:46.813Z,100436.19
2023-02-03T10:29:21.264Z,100444.00
2023-02-03T10:31:47.980Z,100438.25
2023-02-03T10:34:15.909Z,100433.19
2023-02-03T10:36:51.373Z,100441.06
2023-02-03T10:39:26.053Z,100429.50
2023-02-03T10:41:53.087Z,100433.19
2023-02-03T10:44:19.414Z,100456.19
2023-02-03T10:46:45.868Z,100431.03
2023-02-03T10:49:15.091Z,100446.81
2023-02-03T10:51:42.902Z,100491.28
2023-02-03T10:54:29.143Z,100505.50
2023-02-03T10:56:57.473Z,100536.22
2023-02-03T10:59:27.612Z,100535.94
2023-02-03T11:01:53.996Z,100527.63
2023-02-03T11:04:24.273Z,100521.47
2023-02-03T11:06:54.588Z,100519.13
2023-02-03T11:09:40.173Z,100533.84
2023-02-03T11:12:13.352Z,100531.22
2023-02-03T11:14:40.576Z,100521.59
2023-02-03T11:17:07.652Z,100522.81
2023-02-03T11:19:33.998Z,100515.47
2023-02-03T11:22:01.031Z,100533.28
2023-02-03T11:24:28.278Z,100527.69
2023-02-03T11:26:55.714Z,100527.22
2023-02-03T11:29:29.011Z,100525.31
2023-02-03T11:31:56.029Z,100524.00
2023-02-03T11:34:25.910Z,100521.19
2023-02-03T11:36:52.288Z,100527.91
2023-02-03T11:39:19.878Z,100531.09
2023-02-03T11:41:47.092Z,100530.56
2023-02-03T11:44:17.552Z,100536.91
2023-02-03T11:46:44.181Z,100525.00
2023-02-03T11:49:20.449Z,100531.78
2023-02-03T11:51:59.051Z,100535.03
2023-02-03T11:54:40.581Z,100513.44
2023-02-03T11:57:11.917Z,100527.16
2023-02-03T11:59:45.534Z,100527.06
2023-02-03T12:02:30.643Z,100526.88
2023-02-03T12:04:58.715Z,100529.00
2023-02-03T12:07:32.068Z,100530.03
2023-02-03T12:10:03.852Z,100534.59
2023-02-03T12:12:36.070Z,100526.03
2023-02-03T12:15:05.518Z,100540.50
2023-02-03T12:17:40.450Z,100518.94
2023-02-03T12:20:29.135Z,100525.59
2023-02-03T12:23:09.014Z,100531.78
2023-02-03T12:26:02.045Z,100534.75
2023-02-03T12:28:34.060Z,100522.34
2023-02-03T12:31:03.995Z,100530.47
2023-02-03T12:33:34.871Z,100522.50
2023-02-03T12:36:05.988Z,100523.94
2023-02-03T12:38:40.205Z,100515.53
2023-02-03T12:41:08.626Z,100541.22
2023-02-03T12:43:38.500Z,100526.72
2023-02-03T12:46:11.038Z,100538.56
2023-02-03T12:48:56.052Z,100542.97
2023-02-03T12:51:30.919Z,100527.97
2023-02-03T12:53:58.873Z,100528.47
2023-02-03T12:56:30.930Z,100541.72
2023-02-03T12:59:05.205Z,100532.34
2023-02-03T13:01:33.102Z,100558.97
2023-02-03T13:04:15.326Z,100625.22
2023-02-03T13:06:43.463Z,100665.88
2023-02-03T13:09:28.953Z,100678.16
2023-02-03T13:12:13.668Z,100682.84
2023-02-03T13:14:44.550Z,100685.50
2023-02-03T13:17:13.514Z,100695.41
2023-02-03T13:19:44.860Z,100690.97
2023-02-03T13:22:11.822Z,100688.00
2023-02-03T13:24:38.183Z,100705.28
2023-02-03T13:27:09.142Z,100707.38
2023-02-03T13:29:47.621Z,100697.91
2023-02-03T13:32:24.442Z,100678.38
2023-02-03T13:34:53.258Z,100676.16
2023-02-03T13:37:23.178Z,100652.97
2023-02-03T13:39:52.245Z,100649.91
2023-02-03T13:42:19.969Z,100657.44
2023-02-03T13:44:46.460Z,100646.97
2023-02-03T13:47:19.875Z,100644.13
2023-02-03T13:49:48.700Z,100644.44
2023-02-03T13:52:24.927Z,100650.38
2023-02-03T13:54:51.619Z,100652.22
2023-02-03T13:57:19.729Z,100647.69
2023-02-03T13:59:46.066Z,100645.47
2023-02-03T14:02:21.683Z,100640.75
2023-02-03T14:04:48.028Z,100627.56
2023-02-03T14:07:33.412Z,100619.59
2023-02-03T14:10:09.334Z,100612.66
2023-02-03T14:12:36.376Z,100640.13
2023-02-03T14:15:22.950Z,100624.50
2023-02-03T14:17:52.114Z,100612.19
2023-02-03T14:20:27.593Z,100616.78
2023-02-03T14:22:56.709Z,100609.63
2023-02-03T14:25:23.034Z,100602.03
2023-02-03T14:27:49.374Z,100615.81
2023-02-03T14:30:16.817Z,100632.44
2023-02-03T14:32:55.146Z,100610.09
2023-02-03T14:35:21.931Z,100620.28
2023-02-03T14:37:54.953Z,100630.22
2023-02-03T14:40:25.587Z,100625.66
2023-02-03T14:43:12.235Z,100625.97
2023-02-03T14:45:51.078Z,100625.69
2023-02-03T14:48:23.146Z,100644.28
2023-02-03T14:50:55.459Z,100648.59
2023-02-03T14:53:24.579Z,100646.34
2023-02-03T14:56:02.038Z,100657.16
2023-02-03T14:58:36.041Z,100655.75
2023-02-03T15:01:05.556Z,100652.13
2023-02-03T15:03:31.963Z,100662.56
2023-02-03T15:05:59.319Z,100665.00
2023-02-03T15:08:33.359Z,100664.56
2023-02-03T15:11:00.143Z,100676.13
2023-02-03T15:13:26.923Z,100681.88
2023-02-03T15:15:53.889Z,100699.13
2023-02-03T15:18:21.147Z,100700.56
2023-02-03T15:20:47.560Z,100718.13
2023-02-03T15:23:20.751Z,100715.97
2023-02-03T15:25:52.452Z,100703.47
2023-02-03T15:28:19.654Z,100713.59
2023-02-03T15:30:46.627Z,100732.91
2023-02-03T15:33:17.023Z,100736.59
2023-02-03T15:35:43.369Z,100727.44
2023-02-03T15:38:17.408Z,100743.91
2023-02-03T15:40:44.496Z,100742.38
2023-02-03T15:43:16.430Z,100737.94
2023-02-03T15:46:00.066Z,100738.81
2023-02-03T15:48:29.444Z,100749.53
2023-02-03T15:51:09.170Z,100751.84
2023-02-03T15:53:49.219Z,100746.81
2023-02-03T15:56:18.307Z,100756.88
2023-02-03T15:58:45.142Z,100745.38
2023-02-03T16:01:12.379Z,100764.28
2023-02-03T16:03:39.463Z,100764.34
2023-02-03T16:06:07.352Z,100761.75
2023-02-03T16:08:36.408Z,100750.00
2023-02-03T16:11:20.107Z,100768.47
2023-02-03T16:13:46.507Z,100758.50
2023-02-03T16:16:15.131Z,100777.34
2023-02-03T16:18:41.502Z,100768.69
2023-02-03T16:21:21.448Z,100775.81
2023-02-03T16:23:50.793Z,100772.94
2023-02-03T16:26:18.494Z,100792.00
2023-02-03T16:29:13.582Z,100788.69
2023-02-03T16:32:00.023Z,100789.41
2023-02-03T16:34:45.145Z,100801.69
2023-02-03T16:37:31.041Z,100802.47
2023-02-03T16:40:15.788Z,100804.88
2023-02-03T16:43:04.087Z,100815.22
2023-02-03T16:45:49.067Z,100806.66
2023-02-03T16:48:34.013Z,100815.16
2023-02-03T16:51:02.570Z,100806.50
2023-02-03T16:53:30.229Z,100812.44
2023-02-03T16:55:57.106Z,100805.16
2023-02-03T16:58:23.475Z,100802.53
2023-02-03T17:00:50.220Z,100794.69
2023-02-03T17:03:17.327Z,100797.09
2023-02-03T17:05:43.999Z,100805.75
2023-02-03T17:08:10.319Z,100810.19
2023-02-03T17:10:37.293Z,100805.22
2023-02-03T17:13:03.748Z,100765.59
2023-02-03T17:15:30.352Z,100799.53
2023-02-03T17:17:58.165Z,100806.72
2023-02-03T17:20:24.528Z,100809.63
2023-02-03T17:22:54.274Z,100800.97
2023-02-03T17:25:20.834Z,100820.34
2023-02-03T17:27:47.241Z,100838.78
2023-02-03T17:30:13.742Z,100839.13
2023-02-03T17:32:40.065Z,100818.88
2023-02-03T17:35:06.440Z,100839.00
2023-02-03T17:37:33.169Z,100839.66
2023-02-03T17:53:49.003Z,100847.13
2023-02-03T17:56:19.446Z,100849.63
2023-02-03T17:58:45.792Z,100844.50
2023-02-03T18:01:15.842Z,100839.75
2023-02-03T18:03:43.533Z,100863.53
2023-02-03T18:06:09.856Z,100858.94
2023-02-03T18:08:36.157Z,100854.25
2023-02-03T18:11:03.108Z,100844.19
2023-02-03T18:13:29.631Z,100872.25
2023-02-03T18:15:56.302Z,100863.63
2023-02-03T18:18:23.090Z,100869.88
2023-02-03T18:20:49.399Z,100863.94
2023-02-03T18:23:15.717Z,100852.59
2023-02-03T18:25:42.163Z,100856.69
2023-02-03T18:28:08.519Z,100857.75
2023-02-03T18:30:35.052Z,100850.84
2023-02-03T18:33:01.944Z,100849.94
2023-02-03T18:35:29.539Z,100869.13
2023-02-03T18:37:55.906Z,100854.78
2023-02-03T18:40:22.242Z,100859.63
2023-02-03T18:42:48.562Z,100864.09
2023-02-03T18:45:14.937Z,100869.13
2023-02-03T18:47:41.352Z,100874.47
2023-02-03T18:50:07.702Z,100879.06
2023-02-03T18:52:34.072Z,100871.19
2023-02-03T18:55:00.402Z,100881.59
2023-02-03T18:57:26.772Z,100894.63
2023-02-03T18:59:53.150Z,100885.50
2023-02-03T19:02:19.507Z,100886.97
2023-02-03T19:04:45.895Z,100902.13
2023-02-03T19:07:12.387Z,100918.66
2023-02-03T19:09:39.925Z,100915.69
2023-02-03T19:12:06.937Z,100927.97
2023-02-03T19:14:33.275Z,100922.88
2023-02-03T19:16:59.600Z,100922.78
2023-02-03T19:19:25.959Z,100917.75
2023-02-03T19:21:52.290Z,100937.91
2023-02-03T19:24:19.775Z,100926.94
2023-02-03T19:26:46.206Z,100931.94
2023-02-03T19:29:12.518Z,100929.94
2023-02-03T19:31:39.059Z,100927.69
2023-02-03T19:34:05.774Z,100935.47
2023-02-03T19:36:32.101Z,100933.34
2023-02-03T19:38:58.469Z,100927.50
2023-02-03T19:41:26.237Z,100943.38
2023-02-03T19:43:52.671Z,100936.16
2023-02-03T19:46:21.224Z,100946.06
2023-02-03T19:48:47.870Z,100959.75
2023-02-03T19:51:14.207Z,100948.91
2023-02-03T19:53:40.552Z,100947.56
2023-02-03T19:56:06.952Z,100947.56
2023-02-03T19:58:33.294Z,100940.31
2023-02-03T20:00:59.636Z,100958.38
2023-02-03T20:03:25.986Z,100948.91
2023-02-03T20:05:55.016Z,100950.38
2023-02-03T20:08:21.377Z,100956.13
2023-02-03T20:10:47.736Z,100967.66
2023-02-03T20:13:14.076Z,100971.94
2023-02-03T20:15:40.473Z,100981.22
2023-02-03T20:18:06.850Z,100963.19
2023-02-03T20:20:33.284Z,100978.97
2023-02-03T20:22:59.590Z,100973.22
2023-02-03T20:25:25.897Z,100972.31
2023-02-03T20:27:53.740Z,100968.03
2023-02-03T20:30:20.147Z,100978.88
2023-02-03T20:32:47.252Z,100984.66
2023-02-03T20:35:13.585Z,100984.66
2023-02-03T20:37:39.958Z,100994.78
2023-02-03T20:40:06.822Z,100990.50
2023-02-03T20:42:33.151Z,101020.72
2023-02-03T20:44:59.490Z,101004.91
2023-02-03T20:47:25.822Z,101012.81
2023-02-03T20:49:52.229Z,101018.56
2023-02-03T20:52:19.716Z,101017.75
2023-02-03T20:54:46.254Z,101017.00
2023-02-03T20:57:13.233Z,101026.28
2023-02-03T20:59:39.544Z,101027.69
2023-02-03T21:02:17.494Z,101034.91
2023-02-03T21:04:59.143Z,101036.41
2023-02-03T21:07:30.435Z,101043.66
2023-02-03T21:09:57.518Z,101053.78
2023-02-03T21:12:24.031Z,101078.22
2023-02-03T21:14:52.799Z,101076.72
2023-02-03T21:17:25.826Z,101096.88
2023-02-03T21:19:52.443Z,101092.63
2023-02-03T21:22:23.394Z,101134.31
2023-02-03T21:24:53.380Z,101150.13
2023-02-03T21:27:24.327Z,101165.81
2023-02-03T21:30:18.399Z,101177.44
2023-02-03T21:32:44.799Z,101197.69
2023-02-03T21:35:23.761Z,101214.97
2023-02-03T21:37:51.930Z,101225.75
2023-02-03T21:40:21.844Z,101248.03
2023-02-03T21:42:48.175Z,101256.69
2023-02-03T21:45:14.579Z,101266.06
2023-02-03T21:47:41.006Z,101272.50
2023-02-03T21:50:25.886Z,101296.91
2023-02-03T21:52:52.415Z,101299.69
2023-02-03T21:55:18.753Z,101308.31
2023-02-03T21:57:46.443Z,101319.84
2023-02-03T22:00:32.237Z,101326.25
2023-02-03T22:02:58.851Z,101336.28
2023-02-03T22:05:25.238Z,101339.78
2023-02-03T22:07:51.580Z,101344.69
2023-02-03T22:10:17.910Z,101354.09
2023-02-03T22:12:44.278Z,101361.13
2023-02-03T22:15:10.703Z,101371.19
2023-02-03T22:17:37.083Z,101379.81
2023-02-03T22:20:03.416Z,101391.22
2023-02-03T22:22:31.715Z,101389.72
2023-02-03T22:24:58.148Z,101397.63
2023-02-03T22:27:25.449Z,101417.03
2023-02-03T22:29:51.834Z,101422.69
2023-02-03T22:32:18.158Z,101417.53
2023-02-03T22:34:44.506Z,101435.59
2023-02-03T22:37:10.854Z,101441.34
2023-02-03T22:39:37.190Z,101452.09
2023-02-03T22:42:03.563Z,101464.28
2023-02-03T22:44:29.866Z,101470.66
2023-02-03T22:46:56.635Z,101477.16
2023-02-03T22:49:22.952Z,101500.41
2023-02-03T22:51:49.278Z,101490.41
2023-02-03T22:54:15.603Z,101516.41
2023-02-03T22:56:41.944Z,101527.94
2023-02-03T22:59:08.265Z,101528.69
2023-02-03T23:01:34.647Z,101539.44
2023-02-03T23:04:00.995Z,101544.47
2023-02-03T23:06:27.335Z,101555.25
2023-02-03T23:08:55.320Z,101558.00
2023-02-03T23:11:21.659Z,101582.22
2023-02-03T23:13:48.950Z,101587.84
2023-02-03T23:16:15.415Z,101591.25
2023-02-03T23:18:41.778Z,101603.41
2023-02-03T23:21:08.125Z,101611.28
2023-02-03T23:23:37.387Z,101626.66
2023-02-03T23:26:03.717Z,101617.28
2023-02-03T23:28:30.078Z,101632.31
2023-02-03T23:30:56.540Z,101636.44
2023-02-03T23:33:22.976Z,101645.75
2023-02-03T23:35:50.635Z,101647.72
2023-02-03T23:38:17.026Z,101660.63
2023-02-03T23:40:43.395Z,101669.16
2023-02-03T23:43:09.758Z,101679.19
2023-02-03T23:45:36.079Z,101692.06
2023-02-03T23:48:02.434Z,101703.56
2023-02-03T23:50:28.974Z,101713.59
2023-02-03T23:52:55.478Z,101718.72
2023-02-03T23:55:23.357Z,101734.63
2023-02-03T23:57:49.684Z,101744.13
